PWSweather.com
Personal Weather Stations
Station Observations

CefaluIT

Lat: 38.0324, Lon: 14.02837

Elevation: 92

Station Type: LACROSSE WS 2350

http://www.meteocefalu.altervista.org

Latest ConditionsUpdated 8:00:10 AM GMT+01:01 Tuesday, Jun 27, 2017
Currently Today's Max Today's Min Today's Average
Temperature 83.7°F28.7°C 83.7°F28.7°C 78.1°F25.6°C 80.5°F26.9°C
Dew Point 60.7°F15.9°C 64.3°F17.9°C 54.9°F12.7°C 58.5°F14.7°C
Winds 3.5 mph ENE5.6 kmh ENE 5.7 mph SW9.2 kmh SW - 1.7 mph 2.7 kmh
Wind Gusts 4.0 mph6.4 kmh 5.8 mph9.3 kmh - -
Humidity 46% 55% 44% 47%
Pressure 29.78 in1008.5 mb 29.82 in1009.8 mb 29.78 in1008.5 mb -
Hour Temp Dew Point Humidity Winds Wind Gusts Pressure Precip Precip Rate Daily Precip Total
08:00 AM 83.7°F28.7°C 60.7°F15.9°C 46% 3.5 mph ENE5.6 kmh ENE 4.0 mph6.4 kmh 29.78 in1008.5 mb - 0.00 in0.0 mm 0.00 in0.0 mm
07:50 AM 83.5°F28.6°C 62.3°F16.8°C 49% 3.8 mph ENE6.1 kmh ENE 3.8 mph6.1 kmh 29.79 in1008.8 mb - 0.00 in0.0 mm 0.00 in0.0 mm
07:40 AM 83.6°F28.7°C 61.8°F16.6°C 48% 2.5 mph ENE4.0 kmh ENE 4.0 mph6.4 kmh 29.79 in1008.8 mb - 0.00 in0.0 mm 0.00 in0.0 mm
07:30 AM 82.9°F28.3°C 61.2°F16.2°C 48% 2.3 mph ENE3.7 kmh ENE 2.2 mph3.5 kmh 29.79 in1008.8 mb - 0.00 in0.0 mm 0.00 in0.0 mm
07:20 AM 82.6°F28.1°C 62.7°F17.1°C 51% 3.6 mph ENE5.8 kmh ENE 3.6 mph5.8 kmh 29.80 in1009.1 mb - 0.00 in0.0 mm 0.00 in0.0 mm
07:10 AM 81.5°F27.5°C 63.2°F17.3°C 54% 4.0 mph ENE6.4 kmh ENE 5.1 mph8.2 kmh 29.80 in1009.1 mb - 0.00 in0.0 mm 0.00 in0.0 mm
07:00 AM 81.7°F27.6°C 63.9°F17.7°C 55% 3.9 mph ENE6.3 kmh ENE 3.8 mph6.1 kmh 29.80 in1009.1 mb - 0.00 in0.0 mm 0.00 in0.0 mm
06:50 AM 82.0°F27.8°C 64.3°F17.9°C 55% 4.2 mph NE6.8 kmh NE 4.2 mph6.8 kmh 29.80 in1009.1 mb - 0.00 in0.0 mm 0.00 in0.0 mm
06:40 AM 83.0°F28.3°C 61.9°F16.6°C 49% 4.6 mph ENE7.4 kmh ENE 5.1 mph8.2 kmh 29.81 in1009.5 mb - 0.00 in0.0 mm 0.00 in0.0 mm
06:30 AM 82.8°F28.2°C 60.5°F15.8°C 47% 2.3 mph ENE3.7 kmh ENE 2.5 mph4.0 kmh 29.80 in1009.1 mb - 0.00 in0.0 mm 0.00 in0.0 mm
06:20 AM 81.1°F27.3°C 59.6°F15.3°C 48% Calm Calm -- 29.81 in1009.5 mb - 0.00 in0.0 mm 0.00 in0.0 mm
06:10 AM 81.0°F27.2°C 59.5°F15.3°C 48% 4.0 mph SW6.4 kmh SW 5.4 mph8.7 kmh 29.82 in1009.8 mb - 0.00 in0.0 mm 0.00 in0.0 mm
06:00 AM 81.1°F27.3°C 60.2°F15.7°C 49% Calm Calm -- 29.82 in1009.8 mb - 0.00 in0.0 mm 0.00 in0.0 mm
05:50 AM 81.3°F27.4°C 59.8°F15.4°C 48% 1.6 mph E2.6 kmh E 1.6 mph2.6 kmh 29.81 in1009.5 mb - 0.00 in0.0 mm 0.00 in0.0 mm
05:40 AM 82.1°F27.8°C 59.3°F15.2°C 46% Calm Calm -- 29.81 in1009.5 mb - 0.00 in0.0 mm 0.00 in0.0 mm
05:30 AM 81.1°F27.3°C 58.4°F14.7°C 46% 3.3 mph SSW5.3 kmh SSW 3.6 mph5.8 kmh 29.81 in1009.5 mb - 0.00 in0.0 mm 0.00 in0.0 mm
05:20 AM 80.8°F27.1°C 58.7°F14.8°C 47% 5.7 mph SW9.2 kmh SW 5.8 mph9.3 kmh 29.81 in1009.5 mb - 0.00 in0.0 mm 0.00 in0.0 mm
05:10 AM 80.1°F26.7°C 58.6°F14.8°C 48% 3.7 mph SW6.0 kmh SW 4.7 mph7.6 kmh 29.82 in1009.8 mb - 0.00 in0.0 mm 0.00 in0.0 mm
05:00 AM 79.2°F26.2°C 57.8°F14.3°C 48% 3.0 mph SW4.8 kmh SW 2.9 mph4.7 kmh 29.81 in1009.5 mb - 0.00 in0.0 mm 0.00 in0.0 mm
04:50 AM 79.5°F26.4°C 57.5°F14.2°C 47% 4.0 mph SW6.4 kmh SW 4.0 mph6.4 kmh 29.81 in1009.5 mb - 0.00 in0.0 mm 0.00 in0.0 mm
04:40 AM 81.2°F27.3°C 58.5°F14.7°C 46% 3.9 mph SW6.3 kmh SW 4.0 mph6.4 kmh 29.81 in1009.5 mb - 0.00 in0.0 mm 0.00 in0.0 mm
04:30 AM 82.0°F27.8°C 58.6°F14.8°C 45% 2.3 mph SSW3.7 kmh SSW 2.2 mph3.5 kmh 29.80 in1009.1 mb - 0.00 in0.0 mm 0.00 in0.0 mm
04:20 AM 81.1°F27.3°C 57.8°F14.3°C 45% 2.2 mph S3.5 kmh S 2.2 mph3.5 kmh 29.80 in1009.1 mb - 0.00 in0.0 mm 0.00 in0.0 mm
04:10 AM 81.3°F27.4°C 57.9°F14.4°C 45% 2.2 mph S3.5 kmh S 2.2 mph3.5 kmh 29.80 in1009.1 mb - 0.00 in0.0 mm 0.00 in0.0 mm
04:00 AM 80.8°F27.1°C 58.1°F14.5°C 46% 3.3 mph S5.3 kmh S 2.9 mph4.7 kmh 29.80 in1009.1 mb - 0.00 in0.0 mm 0.00 in0.0 mm
03:50 AM 80.4°F26.9°C 57.7°F14.3°C 46% 2.2 mph S3.5 kmh S 2.2 mph3.5 kmh 29.79 in1008.8 mb - 0.00 in0.0 mm 0.00 in0.0 mm
03:40 AM 79.5°F26.4°C 56.9°F13.8°C 46% 3.8 mph SW6.1 kmh SW 3.8 mph6.1 kmh 29.79 in1008.8 mb - 0.00 in0.0 mm 0.00 in0.0 mm
03:30 AM 78.6°F25.9°C 54.9°F12.7°C 44% Calm Calm -- 29.79 in1008.8 mb - 0.00 in0.0 mm 0.00 in0.0 mm
03:20 AM 79.0°F26.1°C 55.2°F12.9°C 44% Calm Calm -- 29.79 in1008.8 mb - 0.00 in0.0 mm 0.00 in0.0 mm
03:10 AM 79.0°F26.1°C 55.8°F13.2°C 45% Calm Calm -- 29.79 in1008.8 mb - 0.00 in0.0 mm 0.00 in0.0 mm
03:00 AM 79.0°F26.1°C 55.8°F13.2°C 45% Calm Calm -- 29.78 in1008.5 mb - 0.00 in0.0 mm 0.00 in0.0 mm
02:50 AM 78.6°F25.9°C 55.5°F13.1°C 45% 0.4 mph ENE0.6 kmh ENE -- 29.79 in1008.8 mb - 0.00 in0.0 mm 0.00 in0.0 mm
02:40 AM 78.1°F25.6°C 55.6°F13.1°C 46% 0.1 mph NE0.2 kmh NE 2.5 mph4.0 kmh 29.79 in1008.8 mb - 0.00 in0.0 mm 0.00 in0.0 mm
02:30 AM 78.1°F25.6°C 56.2°F13.4°C 47% Calm Calm -- 29.78 in1008.5 mb - 0.00 in0.0 mm 0.00 in0.0 mm
02:20 AM 78.4°F25.8°C 55.9°F13.3°C 46% 0.1 mph E0.2 kmh E -- 29.78 in1008.5 mb - 0.00 in0.0 mm 0.00 in0.0 mm
02:10 AM 78.6°F25.9°C 55.5°F13.1°C 45% Calm Calm -- 29.79 in1008.8 mb - 0.00 in0.0 mm 0.00 in0.0 mm
02:00 AM 79.2°F26.2°C 56.0°F13.3°C 45% 0.4 mph S0.6 kmh S 0.7 mph1.1 kmh 29.79 in1008.8 mb - 0.00 in0.0 mm 0.00 in0.0 mm
01:50 AM 79.0°F26.1°C 56.4°F13.6°C 46% 0.5 mph NNW0.8 kmh NNW -- 29.79 in1008.8 mb - 0.00 in0.0 mm 0.00 in0.0 mm
01:40 AM 78.8°F26.0°C 56.9°F13.8°C 47% Calm Calm -- 29.80 in1009.1 mb - 0.00 in0.0 mm 0.00 in0.0 mm
01:30 AM 79.3°F26.3°C 57.4°F14.1°C 47% Calm Calm -- 29.80 in1009.1 mb - 0.00 in0.0 mm 0.00 in0.0 mm
01:20 AM 79.0°F26.1°C 57.6°F14.2°C 48% 0.2 mph S0.3 kmh S -- 29.80 in1009.1 mb - 0.00 in0.0 mm 0.00 in0.0 mm
01:10 AM 79.0°F26.1°C 58.2°F14.6°C 49% Calm Calm -- 29.80 in1009.1 mb - 0.00 in0.0 mm 0.00 in0.0 mm
01:00 AM 79.2°F26.2°C 57.2°F14.0°C 47% 1.2 mph ENE1.9 kmh ENE 0.7 mph1.1 kmh 29.80 in1009.1 mb - 0.00 in0.0 mm 0.00 in0.0 mm
12:50 AM 79.5°F26.4°C 56.9°F13.8°C 46% 0.6 mph ENE1.0 kmh ENE 0.7 mph1.1 kmh 29.81 in1009.5 mb - 0.00 in0.0 mm 0.00 in0.0 mm
12:40 AM 80.1°F26.7°C 57.5°F14.2°C 46% Calm Calm -- 29.81 in1009.5 mb - 0.00 in0.0 mm 0.00 in0.0 mm
12:30 AM 81.0°F27.2°C 58.2°F14.6°C 46% Calm Calm -- 29.81 in1009.5 mb - 0.00 in0.0 mm 0.00 in0.0 mm
12:20 AM 81.0°F27.2°C 58.2°F14.6°C 46% Calm Calm -- 29.81 in1009.5 mb - 0.00 in0.0 mm 0.00 in0.0 mm
12:10 AM 80.5°F26.9°C 58.4°F14.7°C 47% 2.0 mph S3.2 kmh S 2.0 mph3.2 kmh 29.81 in1009.5 mb - 0.00 in0.0 mm 0.00 in0.0 mm
12:00 AM 80.4°F26.9°C 59.5°F15.3°C 49% Calm Calm -- 29.81 in1009.5 mb - 0.00 in0.0 mm 0.00 in0.0 mm